createdAt,value
2023-01-17T00:00:45.072Z,2.03
2023-01-17T00:06:21.479Z,1.30
2023-01-17T00:11:25.278Z,0.95
2023-01-17T00:16:30.323Z,0.55
2023-01-17T00:21:51.891Z,0.98
2023-01-17T00:27:12.793Z,2.10
2023-01-17T00:32:16.793Z,0.30
2023-01-17T00:37:19.369Z,0.30
2023-01-17T00:42:22.027Z,0.88
2023-01-17T00:47:44.675Z,4.20
2023-01-17T00:53:06.147Z,0.57
2023-01-17T00:58:27.951Z,2.58
2023-01-17T01:03:50.669Z,1.08
2023-01-17T01:09:12.275Z,2.50
2023-01-17T01:14:33.496Z,2.72
2023-01-17T01:19:56.165Z,2.62
2023-01-17T01:25:17.515Z,3.40
2023-01-17T01:30:38.912Z,2.17
2023-01-17T01:35:44.023Z,3.35
2023-01-17T01:40:50.049Z,7.85
2023-01-17T01:45:57.010Z,5.18
2023-01-17T01:51:04.741Z,2.15
2023-01-17T01:56:13.897Z,6.65
2023-01-17T02:01:18.576Z,4.78
2023-01-17T02:06:31.404Z,4.95
2023-01-17T02:11:37.172Z,1.70
2023-01-17T02:16:55.033Z,3.08
2023-01-17T02:22:07.158Z,1.77
2023-01-17T02:27:25.331Z,5.68
2023-01-17T02:32:44.176Z,3.95
2023-01-17T02:37:57.593Z,3.05
2023-01-17T02:43:05.713Z,5.28
2023-01-17T02:48:14.150Z,4.68
2023-01-17T02:53:31.367Z,3.83
2023-01-17T02:58:55.184Z,2.57
2023-01-17T03:04:04.545Z,3.30
2023-01-17T03:09:09.877Z,1.95
2023-01-17T03:14:13.583Z,8.30
2023-01-17T03:19:18.695Z,3.28
2023-01-17T03:24:22.374Z,3.17
2023-01-17T03:29:26.148Z,6.45
2023-01-17T03:34:31.236Z,3.12
2023-01-17T03:39:34.989Z,7.22
2023-01-17T03:44:38.684Z,4.47
2023-01-17T03:49:43.765Z,3.87
2023-01-17T03:54:48.496Z,4.22
2023-01-17T03:59:52.213Z,0.88
2023-01-17T04:04:57.473Z,5.80
2023-01-17T04:10:01.180Z,10.52
2023-01-17T04:15:05.463Z,4.40
2023-01-17T04:20:17.331Z,5.00
2023-01-17T04:25:21.048Z,4.20
2023-01-17T04:30:24.918Z,7.55
2023-01-17T04:35:30.784Z,12.75
2023-01-17T04:40:34.513Z,12.32
2023-01-17T04:45:38.780Z,13.65
2023-01-17T04:50:43.831Z,10.30
2023-01-17T04:55:47.866Z,8.30
2023-01-17T05:00:51.816Z,14.10
2023-01-17T05:05:56.962Z,14.90
2023-01-17T05:11:00.693Z,13.52
2023-01-17T05:16:04.704Z,25.70
2023-01-17T05:21:09.888Z,14.45
2023-01-17T05:26:13.915Z,16.30
2023-01-17T05:31:17.873Z,14.57
2023-01-17T05:36:22.992Z,23.77
2023-01-17T05:41:26.741Z,17.40
2023-01-17T05:46:30.712Z,22.65
2023-01-17T05:51:37.840Z,20.30
2023-01-17T05:56:41.579Z,20.80
2023-01-17T06:01:46.137Z,27.02
2023-01-17T06:06:51.226Z,29.60
2023-01-17T06:11:54.919Z,22.20
2023-01-17T06:16:58.699Z,26.25
2023-01-17T06:22:04.700Z,20.60
2023-01-17T06:27:09.919Z,31.42
2023-01-17T06:32:14.205Z,21.95
2023-01-17T06:37:19.263Z,22.33
2023-01-17T06:42:23.552Z,22.17
2023-01-17T06:47:27.342Z,20.00
2023-01-17T06:52:32.506Z,23.45
2023-01-17T06:57:36.604Z,29.10
2023-01-17T07:02:40.328Z,32.78
2023-01-17T07:07:46.147Z,25.98
2023-01-17T07:12:49.915Z,27.85
2023-01-17T07:17:53.700Z,24.45
2023-01-17T07:22:58.853Z,26.50
2023-01-17T07:28:02.548Z,27.50
2023-01-17T07:33:06.437Z,20.55
2023-01-17T07:38:15.691Z,23.40
2023-01-17T07:43:19.447Z,20.30
2023-01-17T07:48:25.857Z,35.75
2023-01-17T07:53:33.008Z,25.98
2023-01-17T07:58:36.879Z,24.60
2023-01-17T08:03:40.845Z,36.38
2023-01-17T08:08:46.066Z,25.12
2023-01-17T08:13:50.015Z,34.55
2023-01-17T08:18:54.117Z,28.98
2023-01-17T08:23:59.400Z,29.35
2023-01-17T08:29:03.192Z,34.22
2023-01-17T08:34:06.941Z,29.90
2023-01-17T08:39:13.504Z,24.23
2023-01-17T08:44:17.316Z,28.73
2023-01-17T08:49:21.154Z,33.65
2023-01-17T08:54:26.274Z,24.98
2023-01-17T08:59:30.037Z,34.10
2023-01-17T09:04:33.909Z,25.83
2023-01-17T09:09:39.026Z,24.77
2023-01-17T09:14:42.742Z,25.77
2023-01-17T09:19:48.732Z,23.70
2023-01-17T09:24:54.285Z,23.25
2023-01-17T09:29:58.033Z,32.97
2023-01-17T09:35:01.808Z,29.80
2023-01-17T09:40:08.739Z,25.85
2023-01-17T09:45:18.973Z,26.87
2023-01-17T09:50:30.567Z,22.52
2023-01-17T09:55:43.961Z,21.42
2023-01-17T10:01:00.195Z,27.00
2023-01-17T10:06:17.367Z,21.00
2023-01-17T10:11:36.890Z,21.37
2023-01-17T10:16:50.278Z,20.77
2023-01-17T10:22:10.195Z,19.67
2023-01-17T10:27:23.171Z,16.98
2023-01-17T10:32:32.415Z,19.98
2023-01-17T10:37:41.428Z,19.23
2023-01-17T10:42:53.116Z,15.57
2023-01-17T10:48:04.398Z,25.80
2023-01-17T10:53:12.376Z,16.20
2023-01-17T10:58:17.593Z,20.27
2023-01-17T11:03:21.797Z,18.20
2023-01-17T11:08:25.677Z,16.98
2023-01-17T11:13:32.626Z,18.12
2023-01-17T11:18:38.829Z,18.35
2023-01-17T11:23:43.819Z,18.27
2023-01-17T11:28:49.071Z,18.17
2023-01-17T11:34:07.579Z,16.62
2023-01-17T11:39:27.388Z,24.60
2023-01-17T11:44:34.350Z,14.90
2023-01-17T11:49:38.222Z,12.93
2023-01-17T11:54:45.613Z,13.10
2023-01-17T11:59:52.583Z,10.27
2023-01-17T12:05:08.405Z,9.95
2023-01-17T12:10:20.447Z,9.00
2023-01-17T12:15:45.840Z,10.57
2023-01-17T12:21:00.405Z,9.63
2023-01-17T12:26:19.623Z,12.45
2023-01-17T12:31:33.543Z,10.48
2023-01-17T12:36:44.122Z,7.95
2023-01-17T12:42:00.504Z,11.25
2023-01-17T12:47:07.282Z,10.30
2023-01-17T12:52:22.576Z,8.93
2023-01-17T12:57:30.542Z,6.97
2023-01-17T13:02:40.119Z,5.37
2023-01-17T13:07:48.704Z,7.45
2023-01-17T13:12:54.938Z,5.40
2023-01-17T13:18:06.477Z,6.78
2023-01-17T13:23:17.016Z,13.18
2023-01-17T13:28:36.091Z,4.87
2023-01-17T13:33:58.906Z,4.22
2023-01-17T13:39:18.012Z,5.12
2023-01-17T13:44:28.251Z,2.92
2023-01-17T13:49:45.455Z,9.43
2023-01-17T13:54:53.982Z,5.87
2023-01-17T13:59:59.315Z,4.90
2023-01-17T14:05:16.212Z,9.45
2023-01-17T14:10:31.457Z,3.33
2023-01-17T14:15:48.061Z,9.15
2023-01-17T14:21:07.151Z,2.53
2023-01-17T14:26:22.176Z,3.40
2023-01-17T14:31:27.328Z,4.70
2023-01-17T14:36:34.570Z,5.87
2023-01-17T14:41:38.825Z,9.60
2023-01-17T14:46:49.178Z,8.70
2023-01-17T14:52:06.317Z,4.20
2023-01-17T14:57:25.589Z,8.48
2023-01-17T15:02:29.474Z,8.68
2023-01-17T15:07:34.741Z,6.68
2023-01-17T15:12:39.030Z,6.72
2023-01-17T15:17:42.864Z,7.03
2023-01-17T15:22:48.133Z,7.80
2023-01-17T15:27:52.389Z,7.80
2023-01-17T15:32:56.173Z,4.12
2023-01-17T15:38:01.990Z,9.75
2023-01-17T15:43:06.617Z,8.27
2023-01-17T15:48:34.731Z,7.20
2023-01-17T15:58:45.051Z,14.63
2023-01-17T16:03:55.503Z,14.18
2023-01-17T16:09:00.626Z,7.25
2023-01-17T16:14:07.522Z,15.63
2023-01-17T16:19:11.254Z,7.20
2023-01-17T16:24:16.735Z,12.73
2023-01-17T16:29:20.464Z,18.23
2023-01-17T16:34:24.843Z,22.20
2023-01-17T16:39:30.061Z,19.67
2023-01-17T16:44:34.630Z,14.02
2023-01-17T16:49:38.636Z,13.43
2023-01-17T16:54:43.730Z,20.75
2023-01-17T16:59:50.990Z,14.52
2023-01-17T17:04:54.934Z,17.70
2023-01-17T17:10:00.078Z,12.15
2023-01-17T17:15:03.998Z,12.57
2023-01-17T17:20:11.485Z,11.40
2023-01-17T17:25:16.994Z,12.32
2023-01-17T17:30:21.020Z,15.43
2023-01-17T17:35:24.782Z,12.65
2023-01-17T17:40:29.942Z,14.73
2023-01-17T17:45:33.752Z,16.77
2023-01-17T17:50:37.522Z,17.27
2023-01-17T17:55:42.650Z,21.42
2023-01-17T18:00:46.566Z,17.67
2023-01-17T18:05:50.353Z,13.90
2023-01-17T18:11:00.451Z,22.05
2023-01-17T18:16:07.575Z,16.00
2023-01-17T18:21:13.639Z,17.93
2023-01-17T18:26:20.842Z,16.55
2023-01-17T18:31:27.229Z,15.87
2023-01-17T18:36:31.098Z,15.27
2023-01-17T18:41:36.551Z,25.35
2023-01-17T18:46:42.190Z,17.67
2023-01-17T18:51:51.110Z,15.98
2023-01-17T18:56:57.039Z,25.08
2023-01-17T19:02:01.195Z,24.05
2023-01-17T19:07:05.193Z,17.50
2023-01-17T19:12:10.284Z,23.17
2023-01-17T19:17:14.303Z,24.75
2023-01-17T19:22:18.332Z,26.67
2023-01-17T19:27:23.827Z,21.70
2023-01-17T19:32:27.679Z,20.62
2023-01-17T19:37:31.872Z,29.60
2023-01-17T19:42:36.986Z,21.30
2023-01-17T19:47:41.243Z,24.10
2023-01-17T19:52:45.349Z,28.33
2023-01-17T19:57:50.880Z,27.30
2023-01-17T20:02:54.784Z,22.50
2023-01-17T20:07:58.977Z,19.17
2023-01-17T20:13:05.065Z,15.85
2023-01-17T20:18:08.937Z,13.95
2023-01-17T20:23:13.085Z,20.42
2023-01-17T20:28:18.184Z,26.52
2023-01-17T20:33:23.182Z,19.00
2023-01-17T20:38:30.664Z,21.50
2023-01-17T20:43:35.887Z,24.05
2023-01-17T20:48:45.653Z,17.92
2023-01-17T20:53:53.255Z,22.50
2023-01-17T20:58:58.536Z,23.48
2023-01-17T21:04:03.149Z,32.15
2023-01-17T21:09:08.651Z,26.30
2023-01-17T21:14:14.061Z,33.22
2023-01-17T21:19:17.974Z,27.92
2023-01-17T21:24:21.785Z,25.67
2023-01-17T21:29:29.080Z,27.33
2023-01-17T21:34:34.590Z,22.87
2023-01-17T21:39:39.553Z,27.85
2023-01-17T21:44:45.259Z,19.42
2023-01-17T21:49:48.951Z,20.70
2023-01-17T21:55:10.334Z,22.08
2023-01-17T22:00:16.738Z,18.48
2023-01-17T22:05:20.607Z,22.87
2023-01-17T22:10:24.324Z,26.08
2023-01-17T22:15:29.537Z,21.35
2023-01-17T22:20:33.381Z,20.08
2023-01-17T22:25:37.540Z,24.23
2023-01-17T22:30:42.663Z,20.23
2023-01-17T22:35:46.420Z,21.73
2023-01-17T22:40:50.636Z,19.27
2023-01-17T22:46:01.812Z,19.27
2023-01-17T22:51:07.806Z,20.33
2023-01-17T22:56:14.117Z,18.05
2023-01-17T23:01:20.982Z,23.67
2023-01-17T23:06:27.249Z,23.08
2023-01-17T23:11:43.800Z,17.23
2023-01-17T23:17:08.948Z,17.67
2023-01-17T23:22:19.185Z,25.25
2023-01-17T23:27:42.698Z,21.05
2023-01-17T23:32:50.185Z,21.37
2023-01-17T23:38:11.776Z,22.73
2023-01-17T23:43:24.677Z,26.48
2023-01-17T23:48:29.821Z,19.77
2023-01-17T23:53:33.776Z,26.00
2023-01-17T23:58:37.531Z,24.63
